Airfield :
LOGIN :

Register | Disclaimer

   EN    FR    IT 

 










Legend :    VFR   Marginal VFR   IFR   Intensive IFR   Very Intensive IFR
Visi :
Ceiling :
>= 8 km
>= 3000ft
5 to 8 km
1000 to 3000 ft
1500m to 5 km
500 to 1000 ft
800 to 1500m
200 to 500 ft
< 800m
< 200 ft
Symbols :   Thunderstorms  Fog  Heavy snow  Heavy precipitations  Wind > 20 kt
SIGMETs :     Misc.  Thunderstorms  Icing  Turbulence  Mountain Waves  Volcanic Ashes







- Airport Elevation : 1234 ft
- IATA code : LUX


ELLX - Luxembourg Findel

CURRENT METAR :
  • 101350Z 29014KT 260V320 9999 FEW025 BKN038 06/01 Q1022 NOSIG

EXPIRED METARs :
  • 101320Z 29014G24KT 9999 FEW020TCU BKN040 06/01 Q1022 NOSIG
  • 101250Z 29011KT 260V320 9999 FEW023 BKN040 06/01 Q1022 NOSIG
  • 101220Z 29011KT 260V330 9999 FEW018 SCT027 BKN038 06/02 Q1023 NOSIG
  • 101150Z 29008KT 260V320 9999 FEW015TCU SCT023 BKN030 05/03 Q1023 TEMPO 4500
  • 101120Z 29009KT 250V330 8000 -SHRA FEW005 BKN015TCU 04/03 Q1023 TEMPO 4500

TAF TAF ELLX
Valid from the 10 at 12:00 until the 11 at 18:00 UTC


101100Z 1012/1118 30010KT 9999 SCT020 BKN030
TEMPO 1012/1017 30015G25KT 4000 SHRA BKN015TCU
PROB40
TEMPO 1102/1109 3000 BR SCT001 BKN002
ATIS : +352 4798 27300
Met : +352 4798 27010 / 27050
No reported NOTAMs for that airfield.



MET'MAP, your aeronautical weather chart ! - Copyright ORBIFLY December 2007 - Disclaimer

ORBIFLY MET'MAP TEAM :

Programming & Development : Alexandra Zaïnal
Concept & Development : Baudouin d'Aumeries
Co-Development & Prog : Marc-Olivier Méhu
Technical & hardware support : Manuel Goepfert

Contact : metmap@orbifly.com




SOURCES & CREDITS :

   NOAA